Brevik Bridge — VRHY7 — position and weather

sailwx.info

Track history (hours):
 
Tides and Currents Weather Stations Pressure Air Temp Water Temp Dewpoint Dewpoint Depression Visibility Wind Speed Wind Dir Waves Ship Positions

Brevik Bridge

Last reported at 2016-Aug-26 04:21 UTC. Time now 2016-Aug-28 12:13 UTC.
Position N 01°16' E 104°14'.

Length 268 m; draft 11 m.

Type: Ship (hazmat cat D). MMSI: 477866200.

Date/timePositionNaut miles runAvg speedWind from/ knotsBaromVisibWave heightAir tempDewpointWater temp
2016-Aug-26 04:21N 01°16' E 104°14'1417.5
2016-Aug-26 03:33N 01°14' E 104°01'1211.7
2016-Aug-26 02:33N 01°11' E 103°49'7 7.1
2016-Aug-26 01:33N 01°17' E 103°46'0 0.5
2016-Aug-26 00:33N 01°17' E 103°46'0 0.0
2016-Aug-25 23:33N 01°17' E 103°46'0 0.0
2016-Aug-25 22:33N 01°17' E 103°46'0 0.0
2016-Aug-25 21:27N 01°17' E 103°46'0 0.0
2016-Aug-25 20:33N 01°17' E 103°46'0 0.0
2016-Aug-25 19:27N 01°17' E 103°46'0 0.0
2016-Aug-25 18:30N 01°17' E 103°46'0 0.0
2016-Aug-25 17:24N 01°17' E 103°46'0 0.0
2016-Aug-25 16:33N 01°17' E 103°46'0 0.0
2016-Aug-25 15:33N 01°17' E 103°46'0 0.0
2016-Aug-25 14:33N 01°17' E 103°46'0 0.0
2016-Aug-25 13:27N 01°17' E 103°46'0 0.0
2016-Aug-25 12:33N 01°17' E 103°46'0 0.0
2016-Aug-25 11:03N 01°17' E 103°46'0 0.0
2016-Aug-25 10:33N 01°17' E 103°46'0 0.0
2016-Aug-25 09:33N 01°17' E 103°46'0 0.0
2016-Aug-25 08:27N 01°17' E 103°46'0 0.0
2016-Aug-25 07:33N 01°17' E 103°46'0 0.0
2016-Aug-25 06:33N 01°17' E 103°46'0 0.0
2016-Aug-25 04:24N 01°17' E 103°46'0 0.0
2016-Aug-25 03:27N 01°17' E 103°46'0 0.0
2016-Aug-25 02:33N 01°17' E 103°46'0 0.0
2016-Aug-25 01:33N 01°17' E 103°46'0 0.0
2016-Aug-25 00:33N 01°17' E 103°46'1 0.8
2016-Aug-24 23:33N 01°17' E 103°46'1 1.1
2016-Aug-24 22:33N 01°17' E 103°45'4 4.4
2016-Aug-24 21:33N 01°13' E 103°42'8 8.2
2016-Aug-24 20:33N 01°11' E 103°34'  
2016-Aug-16 21:33S 19°37' E 057°08'1918.5
2016-Aug-16 20:33S 19°46' E 056°51'  
Track history (hours):
 
Tides and Currents Weather Stations Pressure Air Temp Water Temp Dewpoint Dewpoint Depression Visibility Wind Speed Wind Dir Waves Ship Positions

Brevik Bridge

Last reported at 2016-Aug-26 04:21 UTC. Time now 2016-Aug-28 12:13 UTC.
Position N 01°16' E 104°14'.

Length 268 m; draft 11 m.

Type: Ship (hazmat cat D). MMSI: 477866200.

Date/timePositionNaut miles runAvg speedWind from/ knotsBaromVisibWave heightAir tempDewpointWater temp
2016-Aug-26 04:21N 01°16' E 104°14'1417.5
2016-Aug-26 03:33N 01°14' E 104°01'1211.7
2016-Aug-26 02:33N 01°11' E 103°49'7 7.1
2016-Aug-26 01:33N 01°17' E 103°46'0 0.5
2016-Aug-26 00:33N 01°17' E 103°46'0 0.0
2016-Aug-25 23:33N 01°17' E 103°46'0 0.0
2016-Aug-25 22:33N 01°17' E 103°46'0 0.0
2016-Aug-25 21:27N 01°17' E 103°46'0 0.0
2016-Aug-25 20:33N 01°17' E 103°46'0 0.0
2016-Aug-25 19:27N 01°17' E 103°46'0 0.0
2016-Aug-25 18:30N 01°17' E 103°46'0 0.0
2016-Aug-25 17:24N 01°17' E 103°46'0 0.0
2016-Aug-25 16:33N 01°17' E 103°46'0 0.0
2016-Aug-25 15:33N 01°17' E 103°46'0 0.0
2016-Aug-25 14:33N 01°17' E 103°46'0 0.0
2016-Aug-25 13:27N 01°17' E 103°46'0 0.0
2016-Aug-25 12:33N 01°17' E 103°46'0 0.0
2016-Aug-25 11:03N 01°17' E 103°46'0 0.0
2016-Aug-25 10:33N 01°17' E 103°46'0 0.0
2016-Aug-25 09:33N 01°17' E 103°46'0 0.0
2016-Aug-25 08:27N 01°17' E 103°46'0 0.0
2016-Aug-25 07:33N 01°17' E 103°46'0 0.0
2016-Aug-25 06:33N 01°17' E 103°46'0 0.0
2016-Aug-25 04:24N 01°17' E 103°46'0 0.0
2016-Aug-25 03:27N 01°17' E 103°46'0 0.0
2016-Aug-25 02:33N 01°17' E 103°46'0 0.0
2016-Aug-25 01:33N 01°17' E 103°46'0 0.0
2016-Aug-25 00:33N 01°17' E 103°46'1 0.8
2016-Aug-24 23:33N 01°17' E 103°46'1 1.1
2016-Aug-24 22:33N 01°17' E 103°45'4 4.4
2016-Aug-24 21:33N 01°13' E 103°42'8 8.2
2016-Aug-24 20:33N 01°11' E 103°34'  
2016-Aug-16 21:33S 19°37' E 057°08'1918.5
2016-Aug-16 20:33S 19°46' E 056°51'  

Dump ship's entire track history